Mäntsälä Airport

EFMN · Uusimaa, Finlande

METAR anciennes EFMN · Mäntsälä Airport

Tu vois ci-dessous les METAR des derniers jours. Sélectionne une année pour parcourir les METAR plus anciens, à partir de l'année 2007.

22 avril 2024

Temps Code Temps Temp. Vue Base cloud Vent METAR/SPECI
06:20
V
-3 °C 10 km+ - 350° 350° 13 kt METAR EFHK 220320Z 35013KT CAVOK M03/M07 Q1022 NOSIG
05:50
V
-3 °C 10 km+ - 350° 350° 13 kt METAR EFHK 220250Z 35013KT 9999 FEW046 M03/M07 Q1022 NOSIG
05:20
V
-3 °C 10 km+ - 350° 350° 13 kt METAR EFHK 220220Z 35013KT 9999 FEW046 M03/M07 Q1023 NOSIG
04:50
V
-3 °C 10 km+ - 360° 360° 12 kt METAR EFHK 220150Z 36012KT 9999 SCT046 M03/M07 Q1024 NOSIG
04:20
V
-3 °C 10 km+ - 360° 360° 13 kt METAR EFHK 220120Z 36013KT CAVOK M03/M07 Q1024 NOSIG
03:50
V
-3 °C 10 km+ 4.300 ft 360° 360° 13 kt METAR EFHK 220050Z 36013KT 9999 BKN043 M03/M07 Q1025 NOSIG
03:20
V
-2 °C 10 km+ - 360° 360° 12 kt METAR EFHK 220020Z 36012KT 9999 SCT043 M02/M07 Q1025 NOSIG
02:50
V
-2 °C 10 km+ - 360° 360° 11 kt METAR EFHK 212350Z 36011KT CAVOK M02/M06 Q1026 NOSIG
02:20
V
-2 °C 10 km+ - 360° 360° 10 kt METAR EFHK 212320Z 36010KT CAVOK M02/M06 Q1026 NOSIG
01:50
V
-2 °C 10 km+ 4.700 ft 010° 010° 10 kt METAR EFHK 212250Z 01010KT 9999 BKN047 M02/M06 Q1026 NOSIG
01:20
V
-1 °C 10 km+ 4.700 ft 010° 010° 13 kt METAR EFHK 212220Z 01013KT 9999 BKN047 M01/M06 Q1027 NOSIG
00:50
V
-1 °C 10 km+ 4.900 ft 020° 020° 13 kt METAR EFHK 212150Z 02013KT 9999 BKN049 M01/M06 Q1027 NOSIG
00:20
V
-1 °C 10 km+ - 020° 020° 13 kt METAR EFHK 212120Z 02013KT CAVOK M01/M05 Q1028 NOSIG

21 avril 2024

Temps Code Temps Temp. Vue Base cloud Vent METAR/SPECI
23:50
V
-1 °C 10 km+ - 020° 020° 12 kt METAR EFHK 212050Z 02012KT 9999 SCT049 M01/M05 Q1028 NOSIG
23:20
V
-1 °C 10 km+ - 020° 020° 12 kt METAR EFHK 212020Z 02012KT 9999 SCT049 M01/M05 Q1028 NOSIG
22:50
V
-1 °C 10 km+ - 020° 020° 12 kt METAR EFHK 211950Z 02012KT CAVOK M01/M05 Q1028 NOSIG
22:20
V
0 °C 10 km+ - 020° 020° 11 kt METAR EFHK 211920Z 02011KT CAVOK M00/M06 Q1028 NOSIG
21:50
V
0 °C 10 km+ - 020° 020° 12 kt METAR EFHK 211850Z 02012KT CAVOK 00/M05 Q1028 NOSIG
21:20
V
0 °C 10 km+ - 020° 020° 11 kt METAR EFHK 211820Z 02011KT CAVOK 00/M05 Q1028 NOSIG
20:50
V
1 °C 10 km+ - 020° 020° 11 kt METAR EFHK 211750Z 02011KT CAVOK 01/M05 Q1027 NOSIG
20:20
V
1 °C 10 km+ - 020° 020° 11 kt METAR EFHK 211720Z 02011KT CAVOK 01/M05 Q1027 NOSIG
19:50
V
1 °C 10 km+ - 020° 020° 11 kt METAR EFHK 211650Z 02011KT CAVOK 01/M05 Q1027 NOSIG
19:20
V
1 °C 10 km+ - 020° 020° 12 kt METAR EFHK 211620Z 02012KT CAVOK 01/M05 Q1027 NOSIG
18:50
V
1 °C 10 km+ - 020° 020° 12 kt METAR EFHK 211550Z 02012KT CAVOK 01/M05 Q1027 NOSIG
18:20
V
2 °C 10 km+ - 020° 020° 11 kt METAR EFHK 211520Z 02011KT CAVOK 02/M04 Q1027 NOSIG
17:50
V
2 °C 10 km+ 4.900 ft 020° 020° 11 kt METAR EFHK 211450Z 02011KT 9999 BKN049 02/M04 Q1027 NOSIG
17:20
V
2 °C 10 km+ 4.900 ft 030° 030° 12 kt METAR EFHK 211420Z 03012KT 9999 BKN049 02/M04 Q1027 NOSIG
16:50
V
2 °C 10 km+ 4.900 ft 020° 020° 11 kt METAR EFHK 211350Z 02011KT 350V050 9999 FEW030 BKN049 02/M05 Q1027 NOSIG
16:20
V
2 °C 10 km+ 4.800 ft 020° 020° 13 kt METAR EFHK 211320Z 02013KT 350V060 9999 FEW025 BKN048 02/M04 Q1027 NOSIG
15:50
V
2 °C 10 km+ 4.800 ft 010° 010° 12 kt METAR EFHK 211250Z 01012KT 9999 FEW025 BKN048 02/M04 Q1027 NOSIG
15:20
V
1 °C 10 km+ 4.800 ft 020° 020° 13 kt METAR EFHK 211220Z 02013KT 9999 FEW024 BKN048 01/M04 Q1027 NOSIG
14:50
V
1 °C 10 km+ 4.700 ft 040° 040° 12 kt METAR EFHK 211150Z 04012KT 9999 FEW018 BKN047 01/M04 Q1027 NOSIG
14:20
V
1 °C 10 km+ 4.700 ft 040° 040° 12 kt METAR EFHK 211120Z 04012KT 9999 FEW017 SCT022 BKN047 01/M04 Q1027 NOSIG
13:50
V
0 °C 10 km+ 4.100 ft 020° 020° 10 kt METAR EFHK 211050Z 02010KT 9999 FEW015 SCT020 BKN041 00/M04 Q1027 NOSIG
13:20
V
0 °C 10 km+ 4.400 ft 030° 030° 8 kt METAR EFHK 211020Z 03008KT 360V060 9999 FEW014 SCT031 BKN044 00/M04 Q1027 NOSIG
12:50
V
-1 °C 10 km+ 4.200 ft 030° 030° 10 kt METAR EFHK 210950Z 03010KT 9999 FEW012 SCT027 BKN042 M01/M04 Q1026 NOSIG
12:20
V
-1 °C 10 km+ 3.700 ft 030° 030° 11 kt METAR EFHK 210920Z 03011KT 9999 -SN FEW012 SCT026 BKN037 M01/M03 Q1026 NOSIG
11:50
M
-2 °C 10 km+ 2.600 ft 030° 030° 11 kt METAR EFHK 210850Z 03011KT 9999 -SN FEW011 BKN026 M02/M04 Q1026 NOSIG
11:20
M
-2 °C 10 km+ 2.400 ft 030° 030° 10 kt METAR EFHK 210820Z 03010KT 9999 -SN FEW010 SCT014 OVC024 M02/M04 Q1026 NOSIG
10:50
M
-2 °C 10 km+ 1.600 ft 030° 030° 10 kt METAR EFHK 210750Z 03010KT 9999 -SN FEW010 BKN016 OVC022 M02/M04 Q1026 NOSIG
10:20
M
-2 °C 10 km+ 2.200 ft 020° 020° 9 kt METAR EFHK 210720Z 02009KT 9999 -SN FEW010 SCT017 OVC022 M02/M04 Q1025 REFZRA NOSIG
09:50
M
-3 °C 10 km+ 1.700 ft 020° 020° 10 kt METAR EFHK 210650Z 02010KT 9999 -FZRASN FEW010 BKN017 OVC023 M03/M04 Q1025 BECMG -SN
09:20
M
-3 °C 10 km+ 1.700 ft 020° 020° 8 kt METAR EFHK 210620Z 02008KT 9999 -FZRASN FEW008 BKN017 M03/M04 Q1024 BECMG -SN
08:50
M
-3 °C 10 km+ 1.600 ft 020° 020° 9 kt METAR EFHK 210550Z 02009KT 9999 -FZRASN FEW008 BKN016 M03/M04 Q1024 BECMG -SN
08:20
M
-3 °C 10 km+ 2.000 ft 030° 030° 9 kt METAR EFHK 210520Z 03009KT 360V060 9999 -SN SCT008 SCT016 BKN020 M03/M04 Q1024 TEMPO 7000 BKN008
07:50
M
-3 °C 10 km+ 2.300 ft 020° 020° 9 kt METAR EFHK 210450Z 02009KT 9999 -SN SCT008 SCT016 BKN023 M03/M04 Q1023 TEMPO BKN008
07:20
M
-3 °C 10 km+ 1.600 ft 020° 020° 8 kt METAR EFHK 210420Z 02008KT 9999 -SN SCT008 BKN016 BKN022 M03/M04 Q1023 TEMPO BKN008
06:50
M
-3 °C 10 km+ 1.500 ft 020° 020° 7 kt METAR EFHK 210350Z 02007KT 9999 -SN SCT007 BKN015 BKN028 M03/M04 Q1022 TEMPO BKN007
06:20
M
-3 °C 9 km 1.600 ft 020° 020° 8 kt METAR EFHK 210320Z 02008KT 9000 -SN SCT007 BKN016 M03/M04 Q1022 TEMPO BKN007
05:50
M
-3 °C 9 km 1.600 ft 020° 020° 7 kt METAR EFHK 210250Z 02007KT 9000 -SN FEW009 BKN016 BKN030 M03/M04 Q1021 NOSIG
05:20
M
-3 °C 10 km+ 1.800 ft 020° 020° 9 kt METAR EFHK 210220Z 02009KT 9999 -SN BKN018 BKN028 M03/M04 Q1021 NOSIG
04:50
M
-3 °C 10 km+ 1.600 ft 020° 020° 7 kt METAR EFHK 210150Z 02007KT 9999 -SN BKN016 M03/M04 Q1021 NOSIG
04:20
M
-3 °C 10 km+ 1.600 ft 030° 030° 7 kt METAR EFHK 210120Z 03007KT 9999 -SN BKN016 M03/M04 Q1020 TEMPO BKN008
03:50
M
-3 °C 10 km+ 1.500 ft 010° 010° 8 kt METAR EFHK 210050Z 01008KT 9999 FEW008 BKN015 M03/M04 Q1020 BECMG BKN008
03:20
M
-3 °C 10 km+ 1.400 ft 020° 020° 8 kt METAR EFHK 210020Z 02008KT 9999 -SN FEW008 BKN014 M03/M04 Q1020 BECMG 5000 BKN007
02:50
M
-3 °C 10 km+ 1.500 ft 020° 020° 7 kt METAR EFHK 202350Z 02007KT 9999 -SN FEW008 BKN015 M03/M04 Q1019 BECMG 5000 BKN007
02:20
M
-3 °C 10 km+ 1.800 ft 030° 030° 8 kt METAR EFHK 202320Z 03008KT 9999 -SN FEW009 BKN018 BKN025 M03/M04 Q1019 BECMG 5000 BKN007
01:50
M
-3 °C 10 km+ 3.000 ft 030° 030° 6 kt METAR EFHK 202250Z 03006KT 9999 FEW009 SCT018 BKN030 M03/M04 Q1019 NOSIG
01:20
V
-3 °C 10 km+ 3.600 ft 020° 020° 5 kt METAR EFHK 202220Z 02005KT 9999 -SN FEW008 BKN036 M03/M04 Q1018 NOSIG
00:50
V
-2 °C 10 km+ 4.500 ft 020° 020° 4 kt METAR EFHK 202150Z 02004KT 9999 -SN FEW020 BKN045 M02/M04 Q1018 TEMPO 6000
00:20
V
-2 °C 10 km+ - 050° 050° 6 kt METAR EFHK 202120Z 05006KT 9999 -SN FEW008 SCT015 M02/M03 Q1017 BECMG 3000 BKN007

20 avril 2024

Temps Code Temps Temp. Vue Base cloud Vent METAR/SPECI
23:50
V
-2 °C 10 km+ - 030° 030° 7 kt METAR EFHK 202050Z 03007KT 9999 -SN FEW008 SCT010 M02/M03 Q1017 BECMG 2500 BKN007
23:20
V
-2 °C 10 km+ - 030° 030° 8 kt METAR EFHK 202020Z 03008KT 9999 -SN FEW008 M02/M04 Q1017 BECMG 2500 BKN007
22:50
V
-2 °C 10 km+ - 030° 030° 6 kt METAR EFHK 201950Z 03006KT 9999 -SN SCT012 M02/M03 Q1016 TEMPO BKN010
22:20
V
-2 °C 10 km+ 4.800 ft 020° 020° 4 kt METAR EFHK 201920Z 02004KT 340V070 9999 -SN FEW010 BKN048 M02/M03 Q1016 NOSIG
21:50
V
-2 °C 10 km+ 4.700 ft 030° 030° 4 kt METAR EFHK 201850Z 03004KT 9999 -SN FEW008 BKN047 M02/M03 Q1015 NOSIG
21:20
V
-2 °C 10 km+ - 020° 020° 4 kt METAR EFHK 201820Z 02004KT 9999 -SN FEW008 SCT045 M02/M03 Q1015 NOSIG
20:50
V
-2 °C 10 km+ - 040° 040° 4 kt METAR EFHK 201750Z 04004KT 360V090 9999 -SN FEW007 SCT035 M02/M03 Q1014 NOSIG
20:20
V
-2 °C 10 km+ - 030° 030° 4 kt METAR EFHK 201720Z 03004KT 9999 -SN FEW007 SCT035 M02/M03 Q1014 NOSIG
19:50
M
-2 °C 5 km 3.500 ft 050° 050° 5 kt METAR EFHK 201650Z 05005KT 030V090 5000 -SN SCT008 BKN035 M02/M03 Q1013 TEMPO 8000
19:20
I
-1 °C 4,5 km 3.000 ft 040° 040° 4 kt METAR EFHK 201620Z 04004KT 020V090 4500 -SN SCT009 SCT018 BKN030 M01/M03 Q1013 TEMPO 6000
18:50
M
-1 °C 5 km 1.900 ft 040° 040° 4 kt METAR EFHK 201550Z 04004KT 5000 -SN FEW009 SCT012 BKN019 M01/M03 Q1012 TEMPO 8000
18:20
M
-1 °C 6 km 1.600 ft 010° 010° 3 kt METAR EFHK 201520Z 01003KT 330V050 6000 -SHSN SCT011 BKN016 FEW020TCU OVC048 M01/M03 Q1012 TEMPO 8000
17:50
I
-1 °C 3 km 2.800 ft Var Var 2 kt METAR EFHK 201450Z VRB02KT 3000 -SHSN SCT013 FEW020TCU BKN028 M01/M03 Q1012 TEMPO 5000
17:20
V
-1 °C 10 km+ 3.200 ft Var Var 2 kt METAR EFHK 201420Z VRB02KT 9999 4500W -SHSN FEW011 FEW020TCU BKN032 M01/M04 Q1011 NOSIG
16:50
M
-1 °C 8 km 2.900 ft Var Var 2 kt METAR EFHK 201350Z VRB02KT 8000 -SHSN FEW011 FEW020TCU BKN029 OVC048 M01/M03 Q1011 NOSIG
16:20
M
-2 °C 8 km 2.500 ft 340° 340° 4 kt METAR EFHK 201320Z 34004KT 320V030 8000 3500NE -SHGS SCT010 FEW020TCU BKN025 M02/M03 Q1010 TEMPO 6000
15:50
I
-1 °C 3 km 2.300 ft 250° 250° 4 kt METAR EFHK 201250Z 25004KT 190V290 3000 -SHGS FEW009 SCT014 FEW020TCU BKN023 M01/M04 Q1010 TEMPO 5000 -SN
15:20
M
-1 °C 7 km 3.900 ft Var Var 2 kt METAR EFHK 201220Z VRB02KT 7000 3000W -SN FEW013 SCT017 BKN039 M01/M05 Q1009 NOSIG
14:50
M
-1 °C 6 km 3.200 ft 280° 280° 3 kt METAR EFHK 201150Z 28003KT 230V340 6000 -SN FEW013 SCT016 BKN032 M01/M04 Q1009 TEMPO 8000
14:20
I
-1 °C 4 km 2.800 ft 280° 280° 5 kt METAR EFHK 201120Z 28005KT 250V340 4000 -SHSN FEW013 FEW020TCU BKN028 M01/M04 Q1008 TEMPO 5000
13:50
M
-1 °C 10 km+ 2.200 ft 340° 340° 5 kt METAR EFHK 201050Z 34005KT 280V030 9999 3000SW -SHSN FEW013 FEW020TCU BKN022 M01/M05 Q1008 TEMPO 4000
13:20
M
0 °C 10 km+ 2.800 ft Var Var 5 kt METAR EFHK 201020Z VRB05KT 9999 VCSH FEW015 FEW020TCU BKN028 M00/M05 Q1007 TEMPO 6000
12:50
V
-1 °C 10 km+ - 260° 260° 4 kt METAR EFHK 200950Z 26004KT 210V310 9999 VCSH FEW014 FEW020TCU SCT031 M01/M06 Q1007 NOSIG
12:20
I
-2 °C 3,5 km 2.500 ft 330° 330° 4 kt METAR EFHK 200920Z 33004KT 310V010 3500 -SN SCT015 BKN025 M02/M04 Q1006 BECMG 6000
11:50
V
-2 °C 10 km+ 3.200 ft 320° 320° 4 kt METAR EFHK 200850Z 32004KT 280V350 9999 4500SE -SN FEW013 SCT021 BKN032 M02/M05 Q1006 TEMPO 7000
11:20
M
-3 °C 10 km+ 2.100 ft 320° 320° 5 kt METAR EFHK 200820Z 32005KT 9999 4000SW -SN FEW013 BKN021 M03/M06 Q1006 TEMPO 7000
10:50
M
-3 °C 9 km 1.800 ft 300° 300° 7 kt METAR EFHK 200750Z 30007KT 260V330 9000 4000NE -SN FEW014 BKN018 BKN039 M03/M05 Q1005 TEMPO 7000
10:20
V
-2 °C 10 km+ 4.300 ft 260° 260° 4 kt METAR EFHK 200720Z 26004KT 220V290 9999 -SN SCT014 SCT023 BKN043 M02/M05 Q1005 TEMPO 5000
09:50
V
-3 °C 10 km+ - 270° 270° 5 kt METAR EFHK 200650Z 27005KT 9999 -SN SCT012 SCT028 M03/M06 Q1004 TEMPO 4000 BKN013
09:20
M
-3 °C 10 km+ 2.700 ft 280° 280° 3 kt METAR EFHK 200620Z 28003KT 240V310 9999 4500NE -SN FEW012 BKN027 M03/M05 Q1004 TEMPO 4000 BKN013
08:50
V
-3 °C 10 km+ 3.300 ft 310° 310° 4 kt METAR EFHK 200550Z 31004KT 270V330 9999 -SN FEW009 BKN033 M03/M06 Q1004 NOSIG
08:20
I
-4 °C 4,5 km 2.900 ft 310° 310° 5 kt METAR EFHK 200520Z 31005KT 4500 -SN SCT007 BKN029 M04/M05 Q1003 BECMG 8000
07:50
I
-4 °C 3,5 km 2.900 ft 300° 300° 4 kt METAR EFHK 200450Z 30004KT 260V320 3500 -SN SCT006 BKN029 M04/M05 Q1003 TEMPO 5000
07:20
I
-4 °C 2,5 km 3.200 ft 320° 320° 5 kt METAR EFHK 200420Z 32005KT 2500 -SN FEW005 SCT020 BKN032 M04/M05 Q1003 BECMG 4000
06:50
I
-4 °C 4 km 2.900 ft 310° 310° 4 kt METAR EFHK 200350Z 31004KT 4000 -SN FEW008 SCT014 BKN029 M04/M05 Q1003 BECMG 7000
06:20
M
-4 °C 5 km 4.000 ft 290° 290° 5 kt METAR EFHK 200320Z 29005KT 200V310 5000 -SN FEW016 SCT032 BKN040 M04/M05 Q1002 BECMG 8000
05:50
V
-4 °C 8 km 4.000 ft 290° 290° 4 kt METAR EFHK 200250Z 29004KT 8000 -SN FEW028 BKN040 M04/M05 Q1002 BECMG 6000
05:20
V
-4 °C 10 km+ 3.400 ft 290° 290° 5 kt METAR EFHK 200220Z 29005KT 9999 -SN FEW028 BKN034 M04/M05 Q1002 BECMG 7000
04:50
V
-4 °C 10 km+ - 280° 280° 5 kt METAR EFHK 200150Z 28005KT 9999 FEW035 M04/M05 Q1002 TEMPO 7000
04:20
V
-4 °C 10 km+ - 290° 290° 6 kt METAR EFHK 200120Z 29006KT 9999 -SN FEW022 SCT029 M04/M05 Q1002 TEMPO 7000
03:50
V
-4 °C 10 km+ 4.900 ft 310° 310° 6 kt METAR EFHK 200050Z 31006KT 9999 -SN FEW045 BKN049 M04/M05 Q1002 TEMPO 7000
03:20
M
-4 °C 7 km 4.500 ft 300° 300° 7 kt METAR EFHK 200020Z 30007KT 7000 -SN FEW038 BKN045 M04/M05 Q1002 TEMPO 9000
02:50
M
-4 °C 5 km 4.500 ft 300° 300° 7 kt METAR EFHK 192350Z 30007KT 5000 -SN FEW016 BKN045 M04/M05 Q1002 BECMG 8000
02:20
V
-4 °C 9 km - 310° 310° 8 kt METAR EFHK 192320Z 31008KT 9000 -SN FEW015 SCT038 M04/M05 Q1002 TEMPO 6000
01:50
V
-4 °C 10 km+ - 310° 310° 8 kt METAR EFHK 192250Z 31008KT 9999 FEW038 M04/M05 Q1002 TEMPO 6000
01:20
V
-4 °C 10 km+ - 310° 310° 8 kt METAR EFHK 192220Z 31008KT 9999 FEW015 SCT047 M04/M06 Q1002 TEMPO 6000
00:50
M
-4 °C 8 km 1.800 ft 310° 310° 8 kt METAR EFHK 192150Z 31008KT 8000 -SN FEW012 BKN018 M04/M05 Q1003 TEMPO 5000
00:20
M
-4 °C 5 km 2.200 ft 320° 320° 8 kt METAR EFHK 192120Z 32008KT 5000 -SN SCT011 BKN022 M04/M05 Q1003 TEMPO 4000

19 avril 2024

Temps Code Temps Temp. Vue Base cloud Vent METAR/SPECI
23:50
I
-4 °C 2,5 km 2.400 ft 320° 320° 8 kt METAR EFHK 192050Z 32008KT 2500 -SN FEW010 BKN024 M04/M05 Q1003 BECMG 3500
23:20
I
-4 °C 3,5 km 3.400 ft 320° 320° 9 kt METAR EFHK 192020Z 32009KT 3500 -SN FEW009 SCT013 BKN034 M04/M05 Q1003 NOSIG
22:50
I
-4 °C 4 km 3.500 ft 320° 320° 8 kt METAR EFHK 191950Z 32008KT 4000 -SN FEW007 SCT011 BKN035 M04/M05 Q1003 NOSIG
22:20
I
-4 °C 3 km 1.900 ft 320° 320° 8 kt METAR EFHK 191920Z 32008KT 3000 -SN FEW007 BKN019 M04/M05 Q1003 NOSIG
21:50
I
-4 °C 3 km 2.400 ft 330° 330° 7 kt METAR EFHK 191850Z 33007KT 3000 -SN FEW007 BKN024 M04/M05 Q1004 NOSIG
21:20
I
-4 °C 4 km 2.300 ft 340° 340° 7 kt METAR EFHK 191820Z 34007KT 4000 -SN FEW012 BKN023 BKN038 M04/M05 Q1004 TEMPO 2000
20:50
I
-4 °C 2,5 km 2.200 ft 350° 350° 9 kt METAR EFHK 191750Z 35009KT 2500 -SN SCT009 BKN022 M04/M05 Q1004 TEMPO 3000
20:20
I
-4 °C 2,5 km 2.500 ft 350° 350° 7 kt METAR EFHK 191720Z 35007KT 2500 -SN FEW007 BKN025 M04/M05 Q1004 TEMPO 3000
19:50
I
-3 °C 4 km 2.700 ft 360° 360° 10 kt METAR EFHK 191650Z 36010KT 4000 -SN FEW012 BKN027 BKN043 M03/M05 Q1004 TEMPO 2500
19:20
M
-2 °C 10 km+ 2.800 ft 010° 010° 12 kt METAR EFHK 191620Z 01012KT 9999 -SN BKN028 BKN045 M02/M07 Q1004 BECMG 3000
18:50
M
-2 °C 10 km+ 2.700 ft 350° 350° 10 kt METAR EFHK 191550Z 35010KT 9999 -SN BKN027 BKN035 M02/M07 Q1005 BECMG 3000
18:20
M
-2 °C 10 km+ 2.700 ft 350° 350° 10 kt METAR EFHK 191520Z 35010KT 9999 BKN027 M02/M08 Q1005 BECMG 3000 -SN
17:50
M
-2 °C 10 km+ 2.800 ft 350° 350° 13 kt METAR EFHK 191450Z 35013KT 9999 BKN028 M02/M07 Q1005 BECMG FM1530 3000 -SN
17:20
M
-2 °C 10 km+ 3.000 ft 360° 360° 11 kt METAR EFHK 191420Z 36011KT 9999 BKN030 M02/M07 Q1005 BECMG FM1530 3000 -SN
16:50
V
-1 °C 10 km+ 3.200 ft 350° 350° 11 kt METAR EFHK 191350Z 35011KT 9999 BKN032 M01/M08 Q1005 BECMG FM1530 3000 -SN
16:20
V
-1 °C 10 km+ 3.200 ft 010° 010° 11 kt METAR EFHK 191320Z 01011KT 330V030 9999 BKN032 M01/M08 Q1005 NOSIG
15:50
V
-1 °C 10 km+ 3.200 ft 030° 030° 11 kt METAR EFHK 191250Z 03011KT 9999 BKN032 M01/M07 Q1006 NOSIG
15:20
V
-1 °C 10 km+ 3.300 ft 360° 360° 10 kt METAR EFHK 191220Z 36010KT 330V040 9999 BKN033 M01/M07 Q1006 NOSIG
14:50
V
-1 °C 10 km+ 3.200 ft 360° 360° 9 kt METAR EFHK 191150Z 36009KT 310V040 9999 BKN032 M01/M08 Q1006 NOSIG
14:20
V
-2 °C 10 km+ 3.200 ft 010° 010° 11 kt METAR EFHK 191120Z 01011KT 9999 BKN032 M02/M08 Q1006 NOSIG
13:50
M
-1 °C 10 km+ 2.900 ft 020° 020° 10 kt METAR EFHK 191050Z 02010KT 350V060 9999 BKN029 M01/M07 Q1007 NOSIG
13:20
M
-2 °C 10 km+ 2.800 ft 360° 360° 12 kt METAR EFHK 191020Z 36012KT 340V040 9999 BKN028 M02/M08 Q1007 NOSIG
12:50
M
-2 °C 10 km+ 2.900 ft 360° 360° 12 kt METAR EFHK 190950Z 36012KT 9999 BKN029 M02/M08 Q1007 NOSIG
12:20
M
-2 °C 10 km+ 2.800 ft 020° 020° 10 kt METAR EFHK 190920Z 02010KT 9999 BKN028 M02/M08 Q1008 NOSIG
11:50
M
-2 °C 10 km+ 2.800 ft 030° 030° 10 kt METAR EFHK 190850Z 03010KT 360V060 9999 BKN028 M02/M08 Q1008 NOSIG
11:20
M
-2 °C 10 km+ 2.800 ft 040° 040° 10 kt METAR EFHK 190820Z 04010KT 9999 BKN028 M02/M08 Q1008 NOSIG
10:50
M
-2 °C 10 km+ 2.800 ft 040° 040° 11 kt METAR EFHK 190750Z 04011KT 9999 BKN028 M02/M08 Q1009 NOSIG
10:20
M
-3 °C 10 km+ 2.800 ft 020° 020° 11 kt METAR EFHK 190720Z 02011KT 9999 BKN028 M03/M08 Q1009 NOSIG
09:50
M
-3 °C 10 km+ 2.800 ft 040° 040° 10 kt METAR EFHK 190650Z 04010KT 9999 BKN028 M03/M09 Q1009 NOSIG
09:20
M
-3 °C 10 km+ 2.800 ft 040° 040° 11 kt METAR EFHK 190620Z 04011KT 9999 BKN028 M03/M08 Q1010 NOSIG
08:50
V
-3 °C 10 km+ 3.100 ft 040° 040° 9 kt METAR EFHK 190550Z 04009KT 010V070 9999 FEW025 BKN031 M03/M08 Q1010 NOSIG
Signaler les modifications